Time;durP1;ratioP1;P1;durP2;ratioP2;P2;SDS_P1;SDS_P2;PMS_P1;PMS_P2;Temp;Humidity;BMP_temperature;BMP_pressure;BME280_temperature;BME280_humidity;BME280_pressure;Samples;Min_cycle;Max_cycle;Signal;HPM_P1;HPM_P2
2022/08/09 00:01:20;;;;;;;4.30;3.22;;;;;;;23.19;nan;-24460.75;5023823;28;20264;-62
2022/08/09 00:03:45;;;;;;;5.30;3.25;;;;;;;23.34;nan;-24465.03;5023169;28;20184;-62
2022/08/09 00:06:11;;;;;;;4.28;3.20;;;;;;;23.12;nan;-24458.81;5024110;28;20741;-62
2022/08/09 00:08:36;;;;;;;4.93;3.53;;;;;;;23.06;nan;-24457.16;5023381;28;20168;-62
2022/08/09 00:11:02;;;;;;;4.40;3.30;;;;;;;23.20;nan;-24461.16;5023983;28;20177;-59
2022/08/09 00:13:27;;;;;;;6.85;3.28;;;;;;;23.15;nan;-24459.78;5020319;28;20183;-60
2022/08/09 00:15:53;;;;;;;4.55;3.15;;;;;;;23.19;nan;-24460.75;5020610;28;20194;-59
2022/08/09 00:18:18;;;;;;;4.53;3.13;;;;;;;22.81;nan;-24450.53;5022613;28;20187;-62
2022/08/09 00:20:44;;;;;;;4.80;3.22;;;;;;;21.42;nan;-24412.31;5025744;28;20522;-62
2022/08/09 00:23:09;;;;;;;3.90;3.05;;;;;;;22.74;nan;-24448.44;5023796;28;20167;-62
2022/08/09 00:25:35;;;;;;;5.68;3.38;;;;;;;23.01;nan;-24455.78;5026605;28;20182;-62
2022/08/09 00:28:00;;;;;;;6.18;3.13;;;;;;;20.75;nan;-24393.88;5024599;28;20175;-62
2022/08/09 00:30:26;;;;;;;5.55;3.60;;;;;;;22.90;nan;-24453.00;5023288;28;20223;-62
2022/08/09 00:32:51;;;;;;;7.05;3.25;;;;;;;22.74;nan;-24448.59;5020967;28;20192;-62
2022/08/09 00:35:17;;;;;;;4.35;3.05;;;;;;;22.56;nan;-24443.59;5023905;28;20190;-62
2022/08/09 00:37:42;;;;;;;4.68;3.03;;;;;;;22.51;nan;-24442.22;5022102;28;20695;-62
2022/08/09 00:40:09;;;;;;;5.13;3.20;;;;;;;22.58;nan;-24444.16;5022048;28;20277;-62
2022/08/09 00:42:34;;;;;;;4.72;3.20;;;;;;;22.17;nan;-24432.97;5024671;28;20211;-62
2022/08/09 00:45:00;;;;;;;4.18;3.15;;;;;;;22.12;nan;-24431.56;5022515;28;20233;-62
2022/08/09 00:47:26;;;;;;;4.60;3.13;;;;;;;22.39;nan;-24438.91;5022627;28;20249;-62
2022/08/09 00:49:54;;;;;;;5.30;3.65;;;;;;;22.02;nan;-24428.81;5021028;28;20674;-62
2022/08/09 00:52:21;;;;;;;4.82;3.15;;;;;;;22.07;nan;-24430.03;5022010;28;20207;-62
2022/08/09 00:54:48;;;;;;;6.97;3.08;;;;;;;21.98;nan;-24427.84;5022759;28;20659;-62
2022/08/09 00:57:13;;;;;;;5.90;3.95;;;;;;;22.00;nan;-24428.38;5021733;28;20209;-62
2022/08/09 00:59:41;;;;;;;6.53;3.70;;;;;;;22.20;nan;-24433.66;5024711;28;20611;-62
2022/08/09 01:02:08;;;;;;;4.20;3.13;;;;;;;21.96;nan;-24427.28;5025143;28;20646;-61
2022/08/09 01:04:44;;;;;;;4.00;2.90;;;;;;;22.23;nan;-24434.63;5019209;28;20202;-62
2022/08/09 01:07:24;;;;;;;5.00;3.30;;;;;;;22.26;nan;-24435.31;5020488;28;20182;-61
2022/08/09 01:10:17;;;;;;;5.20;3.50;;;;;;;22.21;nan;-24433.94;5022333;28;20211;-62
2022/08/09 01:12:56;;;;;;;4.40;3.28;;;;;;;21.95;nan;-24427.00;5019487;28;20647;-59
2022/08/09 01:15:27;;;;;;;4.53;3.22;;;;;;;22.18;nan;-24433.09;5022293;28;20690;-63
2022/08/09 01:18:26;;;;;;;5.10;3.47;;;;;;;21.97;nan;-24427.41;5020226;28;20555;-61
2022/08/09 01:21:05;;;;;;;4.53;3.42;;;;;;;22.03;nan;-24429.22;5016439;28;20210;-62
2022/08/09 01:23:44;;;;;;;3.85;2.92;;;;;;;21.83;nan;-24423.69;5021536;28;20171;-60
2022/08/09 01:26:51;;;;;;;5.80;3.67;;;;;;;22.09;nan;-24430.59;5019765;28;20182;-60
2022/08/09 01:29:21;;;;;;;6.35;3.55;;;;;;;21.90;nan;-24425.47;5037725;28;20210;-61
2022/08/09 01:31:49;;;;;;;5.13;3.47;;;;;;;22.01;nan;-24428.66;5023572;28;20558;-60
2022/08/09 01:34:18;;;;;;;6.38;3.60;;;;;;;21.86;nan;-24424.38;5021072;28;20189;-60
2022/08/09 01:36:46;;;;;;;4.97;3.80;;;;;;;21.39;nan;-24411.50;5021604;28;20607;-60
2022/08/09 01:39:15;;;;;;;5.20;3.60;;;;;;;21.77;nan;-24421.88;5024734;28;20191;-60
2022/08/09 01:41:43;;;;;;;5.32;3.83;;;;;;;21.49;nan;-24414.41;5022457;28;20187;-60
2022/08/09 01:44:09;;;;;;;7.30;4.35;;;;;;;21.88;nan;-24425.06;5023902;28;20182;-60
2022/08/09 01:46:41;;;;;;;6.05;3.65;;;;;;;21.42;nan;-24412.31;5022073;28;20191;-60
2022/08/09 01:49:09;;;;;;;7.00;3.95;;;;;;;;;;5025570;28;20202;-61
2022/08/09 01:51:36;;;;;;;5.30;3.65;;;;;;;21.49;nan;-24414.41;5025087;28;20199;-60
2022/08/09 01:54:04;;;;;;;6.65;4.10;;;;;;;21.20;nan;-24406.22;5023135;28;20205;-61
2022/08/09 01:56:32;;;;;;;8.05;3.80;;;;;;;21.07;nan;-24402.88;5022656;28;20175;-61
2022/08/09 01:59:02;;;;;;;6.55;3.92;;;;;;;20.99;nan;-24400.66;5024830;28;20268;-60
2022/08/09 02:01:30;;;;;;;6.18;4.53;;;;;;;20.92;nan;-24398.59;5024925;28;20221;-60
2022/08/09 02:03:57;;;;;;;5.25;4.03;;;;;;;;;;5025114;28;20202;-61
2022/08/09 02:09:12;;;;;;;6.55;4.05;;;;;;;21.22;nan;-24406.78;5022310;28;20222;-61
2022/08/09 02:11:38;;;;;;;6.78;3.72;;;;;;;20.88;nan;-24397.47;5027695;28;20175;-60
2022/08/09 02:14:06;;;;;;;5.82;3.92;;;;;;;21.35;nan;-24410.38;5022540;28;20269;-60
2022/08/09 02:16:34;;;;;;;5.65;4.18;;;;;;;20.97;nan;-24400.13;5023043;28;20219;-60
2022/08/09 02:19:00;;;;;;;6.18;4.35;;;;;;;20.98;nan;-24400.38;5024196;28;20802;-60
2022/08/09 02:21:32;;;;;;;5.80;4.07;;;;;;;20.87;nan;-24397.19;5023200;28;20619;-60
2022/08/09 02:24:00;;;;;;;6.20;3.92;;;;;;;20.68;nan;-24392.06;5024494;28;20264;-60
2022/08/09 02:26:32;;;;;;;6.97;4.22;;;;;;;20.51;nan;-24387.50;5025605;28;20241;-60
2022/08/09 02:29:12;;;;;;;6.93;4.40;;;;;;;20.44;nan;-24385.41;5022460;28;20642;-60
2022/08/09 02:31:42;;;;;;;7.10;3.95;;;;;;;20.58;nan;-24389.44;5025223;28;20179;-60
2022/08/09 02:34:30;;;;;;;8.18;4.22;;;;;;;20.72;nan;-24393.31;5023690;28;20190;-60
2022/08/09 02:36:58;;;;;;;5.85;3.85;;;;;;;20.48;nan;-24386.66;5023396;28;20496;-60
2022/08/09 02:39:37;;;;;;;6.03;3.80;;;;;;;20.78;nan;-24394.84;5023241;28;20739;-61
2022/08/09 02:42:06;;;;;;;8.50;4.25;;;;;;;20.87;nan;-24397.34;5021524;28;20871;-60
2022/08/09 02:44:38;;;;;;;6.60;4.38;;;;;;;20.57;nan;-24389.16;5022034;28;20690;-60
2022/08/09 02:47:08;;;;;;;6.32;4.22;;;;;;;20.78;nan;-24394.69;5021842;28;20654;-60
2022/08/09 02:49:39;;;;;;;4.72;3.42;;;;;;;20.47;nan;-24386.38;5024188;28;20203;-61
2022/08/09 02:52:06;;;;;;;5.40;3.70;;;;;;;20.81;nan;-24395.53;5024918;28;20871;-60
2022/08/09 02:54:33;;;;;;;6.40;4.10;;;;;;;20.99;nan;-24400.53;5021020;28;20183;-60
2022/08/09 02:57:02;;;;;;;5.32;3.53;;;;;;;20.79;nan;-24395.13;5023318;28;20183;-60
2022/08/09 02:59:30;;;;;;;4.82;3.28;;;;;;;20.48;nan;-24386.66;5024061;28;20185;-60
2022/08/09 03:01:58;;;;;;;4.35;3.47;;;;;;;20.81;nan;-24395.66;5022949;28;20227;-61
2022/08/09 03:04:24;;;;;;;4.68;3.28;;;;;;;20.82;nan;-24395.81;5020476;28;20692;-60
2022/08/09 03:06:51;;;;;;;5.20;3.45;;;;;;;20.83;nan;-24396.09;5018538;28;20546;-60
2022/08/09 03:09:19;;;;;;;5.60;3.70;;;;;;;20.92;nan;-24398.72;5027121;28;20194;-60
2022/08/09 03:11:46;;;;;;;4.70;3.33;;;;;;;20.48;nan;-24386.66;5025383;28;20199;-60
2022/08/09 03:14:13;;;;;;;4.30;3.33;;;;;;;20.85;nan;-24396.66;5026805;28;20226;-60
2022/08/09 03:16:40;;;;;;;7.13;3.78;;;;;;;20.56;nan;-24388.75;5024990;28;20187;-61
2022/08/09 03:19:07;;;;;;;6.18;3.53;;;;;;;20.61;nan;-24390.25;5023850;28;20244;-60
2022/08/09 03:21:34;;;;;;;6.28;3.78;;;;;;;20.57;nan;-24389.16;5021297;28;20214;-60
2022/08/09 03:23:59;;;;;;;5.93;3.47;;;;;;;20.26;nan;-24380.69;5019617;28;20262;-60
2022/08/09 03:26:25;;;;;;;7.70;3.70;;;;;;;20.31;nan;-24381.94;5023547;28;20189;-60
2022/08/09 03:28:54;;;;;;;5.22;3.58;;;;;;;20.35;nan;-24383.03;5019520;28;20202;-60
2022/08/09 03:31:20;;;;;;;6.53;3.58;;;;;;;20.44;nan;-24385.41;5019839;28;20292;-61
2022/08/09 03:33:47;;;;;;;4.78;3.00;;;;;;;20.87;nan;-24397.34;5018176;28;20209;-60
2022/08/09 03:36:12;;;;;;;4.85;2.97;;;;;;;18.16;nan;-24322.66;5023664;28;20198;-60
2022/08/09 03:38:41;;;;;;;4.63;3.22;;;;;;;21.32;nan;-24409.53;5021731;28;20180;-60
2022/08/09 03:41:06;;;;;;;5.50;3.63;;;;;;;21.68;nan;-24419.38;5019298;28;20218;-60
2022/08/09 03:43:32;;;;;;;4.50;3.17;;;;;;;22.05;nan;-24429.63;5021736;28;20364;-60
2022/08/09 03:45:58;;;;;;;4.35;2.78;;;;;;;22.72;nan;-24448.03;5020265;28;20212;-60
2022/08/09 03:48:24;;;;;;;5.53;3.33;;;;;;;23.04;nan;-24456.59;5019622;28;20186;-60
2022/08/09 03:50:52;;;;;;;5.68;3.20;;;;;;;23.95;nan;-24481.59;5019199;28;20211;-60
2022/08/09 03:53:19;;;;;;;6.90;3.35;;;;;;;24.68;nan;-24501.47;5018465;28;20632;-60
2022/08/09 03:55:45;;;;;;;5.03;3.67;;;;;;;25.33;nan;-24519.09;5019307;28;20186;-60
2022/08/09 03:58:11;;;;;;;4.18;2.90;;;;;;;25.65;nan;-24527.88;5022809;28;20191;-60
2022/08/09 04:00:38;;;;;;;4.22;2.95;;;;;;;26.05;nan;-24538.59;5019574;28;20172;-62
2022/08/09 04:03:04;;;;;;;5.53;3.00;;;;;;;26.85;nan;-24560.44;5020214;28;20278;-62
2022/08/09 04:05:29;;;;;;;4.90;2.97;;;;;;;27.34;nan;-24573.75;5021339;28;20899;-60
2022/08/09 04:07:55;;;;;;;3.55;2.45;;;;;;;27.64;nan;-24581.97;5017053;28;20171;-60
2022/08/09 04:10:21;;;;;;;3.45;2.80;;;;;;;28.39;nan;-24602.25;5020821;28;20692;-60
2022/08/09 04:12:50;;;;;;;3.42;2.72;;;;;;;29.00;nan;-24618.66;5020523;28;20649;-59
2022/08/09 04:15:17;;;;;;;5.63;3.30;;;;;;;28.78;nan;-24612.63;5019090;28;20683;-62
2022/08/09 04:17:44;;;;;;;4.20;2.95;;;;;;;28.17;nan;-24596.09;5022560;28;20266;-59
2022/08/09 04:20:12;;;;;;;5.25;2.85;;;;;;;28.59;nan;-24607.44;5021584;28;20191;-60
2022/08/09 04:22:39;;;;;;;4.30;3.17;;;;;;;28.88;nan;-24615.50;5020586;28;20183;-59
2022/08/09 04:25:05;;;;;;;4.43;2.95;;;;;;;29.25;nan;-24625.47;5019876;28;20651;-60
2022/08/09 04:27:31;;;;;;;5.82;3.10;;;;;;;29.32;nan;-24627.41;5021648;28;20535;-60
2022/08/09 04:29:57;;;;;;;6.22;3.28;;;;;;;29.94;nan;-24643.91;5018170;28;20191;-60
2022/08/09 04:32:23;;;;;;;4.45;3.08;;;;;;;30.32;nan;-24654.13;5014948;28;20184;-60
2022/08/09 04:34:49;;;;;;;4.60;3.30;;;;;;;29.98;nan;-24645.13;5013797;28;20186;-60
2022/08/09 04:37:14;;;;;;;3.85;3.00;;;;;;;30.02;nan;-24646.09;5012657;28;20193;-62
2022/08/09 04:39:40;;;;;;;6.50;3.35;;;;;;;29.96;nan;-24644.47;5018054;28;20187;-61
2022/08/09 04:42:05;;;;;;;10.00;3.97;;;;;;;29.81;nan;-24640.63;5013477;28;20328;-61
2022/08/09 04:44:31;;;;;;;5.00;3.38;;;;;;;29.78;nan;-24639.81;5017909;28;21134;-62
2022/08/09 04:46:57;;;;;;;5.28;3.55;;;;;;;29.28;nan;-24626.16;5017554;28;20233;-62
2022/08/09 04:49:23;;;;;;;5.63;3.00;;;;;;;28.35;nan;-24601.16;5017331;28;20269;-62
2022/08/09 04:51:48;;;;;;;4.22;3.10;;;;;;;28.47;nan;-24604.44;5020880;28;20187;-62
2022/08/09 04:54:14;;;;;;;4.78;3.08;;;;;;;28.23;nan;-24597.72;5019285;28;20266;-62
2022/08/09 04:56:39;;;;;;;5.70;3.35;;;;;;;27.81;nan;-24586.34;5018128;28;20263;-61
2022/08/09 04:59:04;;;;;;;4.95;3.10;;;;;;;28.22;nan;-24597.44;5018028;28;20211;-62
2022/08/09 05:01:30;;;;;;;4.90;3.15;;;;;;;27.78;nan;-24585.69;5018610;28;20262;-62
2022/08/09 05:03:55;;;;;;;5.22;3.92;;;;;;;28.13;nan;-24595.00;5018321;28;20221;-63
2022/08/09 05:06:21;;;;;;;3.72;2.80;;;;;;;28.41;nan;-24602.78;5023422;28;20647;-62
2022/08/09 05:08:46;;;;;;;4.90;3.60;;;;;;;28.19;nan;-24596.78;5018103;28;20198;-62
2022/08/09 05:11:12;;;;;;;5.05;3.50;;;;;;;27.95;nan;-24590.34;5016912;28;20534;-62
2022/08/09 05:13:39;;;;;;;4.43;3.22;;;;;;;27.42;nan;-24575.94;5015043;28;20227;-62
2022/08/09 05:16:06;;;;;;;5.47;3.58;;;;;;;27.34;nan;-24573.75;5020594;28;20562;-60
2022/08/09 05:18:32;;;;;;;4.20;3.03;;;;;;;27.41;nan;-24575.66;5018930;28;20178;-62
2022/08/09 05:20:59;;;;;;;4.88;3.40;;;;;;;27.22;nan;-24570.47;5021315;28;20172;-62
2022/08/09 05:23:25;;;;;;;5.25;3.38;;;;;;;27.10;nan;-24567.31;5017198;28;20190;-62
2022/08/09 05:25:50;;;;;;;5.00;3.33;;;;;;;27.11;nan;-24567.59;5021236;28;20569;-62
2022/08/09 05:28:16;;;;;;;5.70;3.33;;;;;;;26.67;nan;-24555.66;5016989;28;20175;-62
2022/08/09 05:30:43;;;;;;;5.38;3.38;;;;;;;26.35;nan;-24546.84;5013820;28;20207;-62
2022/08/09 05:33:08;;;;;;;5.43;3.17;;;;;;;26.45;nan;-24549.59;5012337;28;20186;-63
2022/08/09 05:35:34;;;;;;;5.55;3.35;;;;;;;26.59;nan;-24553.31;5014441;28;20203;-62
2022/08/09 05:37:59;;;;;;;5.07;3.67;;;;;;;26.65;nan;-24555.09;5017740;28;20176;-62
2022/08/09 05:40:27;;;;;;;5.82;3.50;;;;;;;26.89;nan;-24561.41;5017578;28;20179;-62
2022/08/09 05:42:53;;;;;;;5.25;3.58;;;;;;;26.67;nan;-24555.66;5020679;28;20645;-61
2022/08/09 05:45:19;;;;;;;4.60;3.10;;;;;;;26.88;nan;-24561.28;5021371;28;20203;-62
2022/08/09 05:47:45;;;;;;;4.28;3.15;;;;;;;26.81;nan;-24559.50;5020355;28;20266;-62
2022/08/09 05:50:10;;;;;;;4.78;3.58;;;;;;;26.73;nan;-24557.16;5018200;28;20566;-62
2022/08/09 05:52:36;;;;;;;4.78;3.13;;;;;;;26.96;nan;-24563.47;5020838;28;20215;-62
2022/08/09 05:55:01;;;;;;;5.53;3.45;;;;;;;27.13;nan;-24568.00;5023173;28;20194;-62
2022/08/09 05:57:26;;;;;;;7.28;3.38;;;;;;;27.43;nan;-24576.22;5023390;28;20253;-63
2022/08/09 05:59:52;;;;;;;5.38;3.38;;;;;;;27.31;nan;-24572.94;5022326;28;20638;-62
2022/08/09 06:02:17;;;;;;;4.45;3.40;;;;;;;27.46;nan;-24577.03;5023896;28;20184;-60
2022/08/09 06:07:13;;;;;;;4.35;2.83;;;;;;;27.39;nan;-24574.97;4978724;28;20216;-62
2022/08/09 06:09:38;;;;;;;5.25;3.03;;;;;;;27.20;nan;-24570.06;4982507;28;20205;-62
2022/08/09 06:12:04;;;;;;;5.65;3.47;;;;;;;27.61;nan;-24581.00;4982487;28;21541;-62
2022/08/09 06:14:30;;;;;;;4.85;3.13;;;;;;;27.75;nan;-24584.84;4976900;28;20578;-63
2022/08/09 06:16:55;;;;;;;5.38;3.05;;;;;;;27.96;nan;-24590.47;4986192;28;20572;-61
2022/08/09 06:19:21;;;;;;;4.65;3.13;;;;;;;28.01;nan;-24591.84;4983184;28;20246;-62
2022/08/09 06:21:47;;;;;;;4.72;3.28;;;;;;;28.13;nan;-24595.13;4985345;28;20185;-62
2022/08/09 06:24:13;;;;;;;4.28;2.70;;;;;;;28.20;nan;-24597.03;4988216;28;20607;-62
2022/08/09 06:26:40;;;;;;;3.72;2.42;;;;;;;28.25;nan;-24598.28;4986773;28;20192;-62
2022/08/09 06:29:07;;;;;;;4.57;2.95;;;;;;;28.13;nan;-24595.00;4987482;28;20542;-63
2022/08/09 06:31:34;;;;;;;5.35;3.53;;;;;;;28.14;nan;-24595.25;4988748;28;20247;-62
2022/08/09 06:34:01;;;;;;;9.48;3.92;;;;;;;28.17;nan;-24596.09;4989019;28;20635;-62
2022/08/09 06:36:26;;;;;;;5.40;3.58;;;;;;;28.23;nan;-24597.88;4988242;28;20195;-62
2022/08/09 06:38:52;;;;;;;5.82;4.18;;;;;;;28.11;nan;-24594.72;4987710;28;20181;-62
2022/08/09 06:41:17;;;;;;;6.85;4.45;;;;;;;28.10;nan;-24594.44;4988387;28;20193;-61
2022/08/09 06:43:44;;;;;;;7.57;4.93;;;;;;;28.47;nan;-24604.28;4989155;28;20177;-62
2022/08/09 06:46:09;;;;;;;7.15;4.47;;;;;;;28.57;nan;-24607.03;4988292;28;20533;-62
2022/08/09 06:48:34;;;;;;;6.97;4.53;;;;;;;28.79;nan;-24612.91;4988325;28;20184;-62
2022/08/09 06:51:00;;;;;;;11.45;5.10;;;;;;;28.44;nan;-24603.59;4987305;28;21533;-62
2022/08/09 06:53:26;;;;;;;6.68;4.60;;;;;;;28.67;nan;-24609.63;4987419;28;20193;-63
2022/08/09 06:55:52;;;;;;;5.97;3.90;;;;;;;28.92;nan;-24616.47;4988427;28;20192;-61
2022/08/09 06:58:17;;;;;;;7.25;4.28;;;;;;;28.88;nan;-24615.50;4988210;28;20235;-62
2022/08/09 07:00:43;;;;;;;7.18;4.65;;;;;;;28.96;nan;-24617.69;4988960;28;20657;-62
2022/08/09 07:03:08;;;;;;;6.18;4.15;;;;;;;28.07;nan;-24593.63;4987647;28;20185;-62
2022/08/09 07:05:34;;;;;;;6.22;4.03;;;;;;;28.96;nan;-24617.69;4994265;28;20694;-62
2022/08/09 07:07:59;;;;;;;7.20;3.90;;;;;;;29.41;nan;-24629.84;5007947;28;20286;-63
2022/08/09 07:10:24;;;;;;;6.60;4.07;;;;;;;29.48;nan;-24631.63;5006867;28;20258;-62
2022/08/09 07:12:50;;;;;;;6.70;4.05;;;;;;;29.61;nan;-24635.03;5007595;28;20184;-62
2022/08/09 07:15:16;;;;;;;6.55;4.18;;;;;;;29.83;nan;-24641.03;5008037;28;20521;-64
2022/08/09 07:17:41;;;;;;;5.97;4.20;;;;;;;29.81;nan;-24640.50;5008058;28;20250;-61
2022/08/09 07:20:07;;;;;;;6.72;4.32;;;;;;;29.59;nan;-24634.50;5006440;28;20245;-62
2022/08/09 07:22:33;;;;;;;5.68;3.92;;;;;;;29.92;nan;-24643.50;5013510;28;20729;-61
2022/08/09 07:24:58;;;;;;;7.63;4.53;;;;;;;29.81;nan;-24640.63;5013916;28;20172;-61
2022/08/09 07:27:26;;;;;;;5.78;4.13;;;;;;;29.94;nan;-24643.91;5011737;28;20238;-60
2022/08/09 07:29:55;;;;;;;10.25;4.50;;;;;;;29.98;nan;-24645.13;5012658;28;20210;-61
2022/08/09 07:32:20;;;;;;;6.68;4.45;;;;;;;30.01;nan;-24645.81;5012533;28;20191;-61
2022/08/09 07:34:46;;;;;;;7.03;4.15;;;;;;;30.42;nan;-24657.00;5012060;28;20274;-62
2022/08/09 07:37:12;;;;;;;10.95;4.97;;;;;;;30.40;nan;-24656.44;5012887;28;20187;-66
2022/08/09 07:39:38;;;;;;;7.35;4.88;;;;;;;30.44;nan;-24657.41;5012073;28;20198;-62
2022/08/09 07:42:04;;;;;;;9.70;4.47;;;;;;;30.62;nan;-24662.31;5011799;28;20704;-61
2022/08/09 07:44:29;;;;;;;6.75;4.47;;;;;;;30.50;nan;-24659.03;5011955;28;20175;-62
2022/08/09 07:46:55;;;;;;;5.72;3.90;;;;;;;30.81;nan;-24667.47;5010889;28;20258;-61
2022/08/09 07:49:20;;;;;;;5.97;3.65;;;;;;;30.45;nan;-24657.81;5012430;28;20203;-61
2022/08/09 07:51:46;;;;;;;9.05;4.15;;;;;;;30.69;nan;-24664.34;5012940;28;20167;-61
2022/08/09 07:54:11;;;;;;;6.85;4.38;;;;;;;30.44;nan;-24657.41;5012390;28;20620;-61
2022/08/09 07:56:37;;;;;;;6.70;4.40;;;;;;;30.80;nan;-24667.22;5013022;28;20175;-62
2022/08/09 07:59:03;;;;;;;7.07;4.32;;;;;;;31.17;nan;-24677.16;5012832;28;20198;-62
2022/08/09 08:01:28;;;;;;;5.90;3.80;;;;;;;31.37;nan;-24682.59;5012676;28;20646;-62
2022/08/09 08:03:54;;;;;;;6.07;4.00;;;;;;;31.42;nan;-24683.94;5012559;28;20167;-62
2022/08/09 08:06:19;;;;;;;5.47;3.75;;;;;;;31.65;nan;-24690.06;5013043;28;20223;-62
2022/08/09 08:08:44;;;;;;;3.80;3.40;;;;;;;31.45;nan;-24684.75;5012755;28;20225;-62
2022/08/09 08:11:10;;;;;;;4.65;3.60;;;;;;;31.75;nan;-24692.66;5012547;28;20650;-62
2022/08/09 08:13:35;;;;;;;5.78;3.90;;;;;;;31.79;nan;-24693.75;5012548;28;20266;-62
2022/08/09 08:16:01;;;;;;;7.10;4.15;;;;;;;32.17;nan;-24704.06;5012187;28;20176;-63
2022/08/09 08:18:26;;;;;;;6.03;3.75;;;;;;;32.13;nan;-24702.84;5012674;28;20208;-62
2022/08/09 08:20:52;;;;;;;4.47;3.35;;;;;;;31.82;nan;-24694.56;5012665;28;20179;-62
2022/08/09 08:23:17;;;;;;;5.82;3.47;;;;;;;32.19;nan;-24704.47;5012683;28;20230;-63
2022/08/09 08:25:47;;;;;;;6.15;3.42;;;;;;;32.44;nan;-24711.38;5012366;28;20187;-62
2022/08/09 08:28:14;;;;;;;7.03;3.70;;;;;;;32.47;nan;-24711.94;5012430;28;20183;-63
2022/08/09 08:30:40;;;;;;;5.35;3.60;;;;;;;32.74;nan;-24719.41;5012232;28;20637;-62
2022/08/09 08:33:06;;;;;;;6.85;4.18;;;;;;;32.69;nan;-24717.91;5011840;28;20179;-62
2022/08/09 08:35:31;;;;;;;7.45;4.30;;;;;;;32.80;nan;-24720.88;5012362;28;20160;-62
2022/08/09 08:37:57;;;;;;;7.63;4.00;;;;;;;32.78;nan;-24720.34;5012155;28;20182;-62
2022/08/09 08:40:23;;;;;;;6.22;4.13;;;;;;;32.99;nan;-24725.91;5011117;28;20203;-62
2022/08/09 08:42:49;;;;;;;6.93;4.00;;;;;;;29.59;nan;-24634.63;5011822;28;20163;-62
2022/08/09 08:45:15;;;;;;;5.88;3.40;;;;;;;33.07;nan;-24728.06;5012011;28;20190;-62
2022/08/09 08:47:44;;;;;;;6.05;3.88;;;;;;;33.13;nan;-24729.84;5011603;28;20169;-61
2022/08/09 08:50:14;;;;;;;9.98;3.75;;;;;;;32.82;nan;-24721.56;5011945;28;20257;-61
2022/08/09 08:52:40;;;;;;;6.00;3.47;;;;;;;33.06;nan;-24727.94;5011999;28;20171;-62
2022/08/09 08:55:06;;;;;;;5.47;3.22;;;;;;;32.91;nan;-24723.88;5010383;28;20184;-62
2022/08/09 08:57:32;;;;;;;5.20;3.40;;;;;;;33.21;nan;-24731.88;5011258;28;20708;-62
2022/08/09 08:59:57;;;;;;;5.25;3.22;;;;;;;33.53;nan;-24740.41;5012119;28;20163;-61
2022/08/09 09:02:28;;;;;;;5.55;3.58;;;;;;;33.35;nan;-24735.53;5011454;28;20636;-60
2022/08/09 09:04:56;;;;;;;5.78;3.45;;;;;;;33.81;nan;-24747.84;5011116;28;20180;-63
2022/08/09 09:07:24;;;;;;;7.43;4.40;;;;;;;33.75;nan;-24746.22;5010380;28;20183;-60
2022/08/09 09:09:51;;;;;;;5.38;3.47;;;;;;;33.61;nan;-24742.56;5010357;28;20211;-62
2022/08/09 09:12:19;;;;;;;8.23;4.03;;;;;;;33.79;nan;-24747.31;5008358;28;20172;-60
2022/08/09 09:14:46;;;;;;;4.15;2.83;;;;;;;33.72;nan;-24745.53;5010971;28;20172;-63
2022/08/09 09:17:13;;;;;;;4.53;3.00;;;;;;;33.91;nan;-24750.69;5011535;28;20638;-64
2022/08/09 09:19:39;;;;;;;4.18;3.20;;;;;;;34.21;nan;-24758.53;5011408;28;20194;-60
2022/08/09 09:22:12;;;;;;;4.60;3.40;;;;;;;34.12;nan;-24756.38;5010839;28;20179;-63
2022/08/09 09:24:42;;;;;;;5.50;3.03;;;;;;;34.56;nan;-24768.00;5008704;28;20187;-61
2022/08/09 09:27:09;;;;;;;4.07;3.00;;;;;;;34.04;nan;-24754.19;5010434;28;20179;-64
2022/08/09 09:29:41;;;;;;;5.25;3.47;;;;;;;34.46;nan;-24765.28;5007696;28;20266;-62
2022/08/09 09:32:07;;;;;;;4.47;2.72;;;;;;;34.75;nan;-24773.13;5009818;28;20611;-62
2022/08/09 09:34:33;;;;;;;3.58;2.65;;;;;;;35.12;nan;-24782.97;5011949;28;20183;-62
2022/08/09 09:37:00;;;;;;;4.88;3.05;;;;;;;35.15;nan;-24783.78;5010875;28;20186;-62
2022/08/09 09:39:27;;;;;;;4.28;2.90;;;;;;;34.80;nan;-24774.47;5010166;28;20238;-60
2022/08/09 09:41:54;;;;;;;4.15;2.83;;;;;;;34.78;nan;-24773.81;4991997;28;20582;-62
2022/08/09 09:44:25;;;;;;;4.45;3.00;;;;;;;34.89;nan;-24776.91;5010635;28;20625;-63
2022/08/09 09:47:05;;;;;;;4.70;3.00;;;;;;;34.31;nan;-24761.38;5009633;28;20218;-63
2022/08/09 09:49:30;;;;;;;5.93;3.25;;;;;;;34.42;nan;-24764.22;5010416;28;20203;-62
2022/08/09 09:52:10;;;;;;;3.45;2.47;;;;;;;34.27;nan;-24760.16;5013224;28;20672;-60
2022/08/09 09:54:38;;;;;;;3.75;2.55;;;;;;;34.29;nan;-24760.84;5010896;28;20274;-62
2022/08/09 09:57:18;;;;;;;3.45;2.47;;;;;;;33.51;nan;-24739.84;5014448;28;20229;-62
2022/08/09 09:59:45;;;;;;;2.97;2.17;;;;;;;32.93;nan;-24724.41;5012225;28;20182;-63
2022/08/09 10:02:12;;;;;;;3.70;2.15;;;;;;;32.80;nan;-24721.03;5013474;28;20186;-63
2022/08/09 10:04:38;;;;;;;2.53;2.03;;;;;;;32.50;nan;-24712.75;5013065;28;20221;-62
2022/08/09 10:07:04;;;;;;;2.80;2.17;;;;;;;32.95;nan;-24724.97;5013565;28;20254;-62
2022/08/09 10:09:49;;;;;;;2.70;1.90;;;;;;;32.85;nan;-24722.25;5014308;28;20716;-59
2022/08/09 10:12:30;;;;;;;2.88;2.05;;;;;;;32.57;nan;-24714.66;5013463;28;20184;-64
2022/08/09 10:15:14;;;;;;;2.42;1.60;;;;;;;32.62;nan;-24716.13;5012215;28;20475;-61
2022/08/09 10:17:42;;;;;;;2.50;1.90;;;;;;;32.88;nan;-24723.06;5010433;28;20564;-63
2022/08/09 10:20:16;;;;;;;2.95;2.20;;;;;;;33.20;nan;-24731.72;5013432;28;20574;-64
2022/08/09 10:22:42;;;;;;;2.63;1.90;;;;;;;32.80;nan;-24720.88;5009728;28;20552;-63
2022/08/09 10:25:08;;;;;;;2.35;1.90;;;;;;;32.75;nan;-24719.66;5013404;28;20241;-60
2022/08/09 10:27:35;;;;;;;3.78;2.15;;;;;;;32.33;nan;-24708.28;5012981;28;20183;-60
2022/08/09 10:30:06;;;;;;;3.00;2.00;;;;;;;32.59;nan;-24715.31;5014806;28;20226;-63
2022/08/09 10:32:33;;;;;;;2.88;2.20;;;;;;;32.88;nan;-24723.19;5013095;28;20210;-61
2022/08/09 10:34:59;;;;;;;4.90;1.98;;;;;;;33.02;nan;-24726.72;5015123;28;20175;-62
2022/08/09 10:37:25;;;;;;;3.17;2.33;;;;;;;32.72;nan;-24718.84;5014694;28;20183;-63
2022/08/09 10:39:52;;;;;;;3.80;2.70;;;;;;;32.48;nan;-24712.34;5014487;28;20175;-61
2022/08/09 10:42:18;;;;;;;3.75;2.80;;;;;;;32.33;nan;-24708.41;5013225;28;20578;-62
2022/08/09 10:44:53;;;;;;;5.13;2.45;;;;;;;32.07;nan;-24701.34;5014989;28;20664;-62
2022/08/09 10:47:36;;;;;;;5.70;2.70;;;;;;;32.16;nan;-24703.78;5014852;28;20163;-62
2022/08/09 10:50:22;;;;;;;4.43;2.70;;;;;;;32.60;nan;-24715.47;5014630;28;20191;-62
2022/08/09 10:53:06;;;;;;;3.30;2.58;;;;;;;32.95;nan;-24724.97;5014198;28;20700;-60
2022/08/09 10:55:33;;;;;;;3.80;2.50;;;;;;;30.60;nan;-24661.91;5014474;28;20639;-62
2022/08/09 10:57:59;;;;;;;3.78;2.53;;;;;;;32.61;nan;-24715.72;5014127;28;20573;-63
2022/08/09 11:00:27;;;;;;;4.35;2.60;;;;;;;32.85;nan;-24722.38;5014081;28;20176;-63
2022/08/09 11:02:53;;;;;;;3.33;2.35;;;;;;;32.51;nan;-24713.03;5013377;28;20643;-62
2022/08/09 11:05:21;;;;;;;5.38;2.40;;;;;;;32.63;nan;-24716.41;5013914;28;20219;-63
2022/08/09 11:07:50;;;;;;;4.57;2.45;;;;;;;32.70;nan;-24718.19;5013898;28;20187;-62
2022/08/09 11:10:55;;;;;;;2.88;2.35;;;;;;;33.00;nan;-24726.31;5013371;28;20261;-62
2022/08/09 11:13:21;;;;;;;3.40;2.35;;;;;;;32.93;nan;-24724.41;5012724;28;20261;-60
2022/08/09 11:15:46;;;;;;;3.20;2.40;;;;;;;32.67;nan;-24717.50;5013967;28;20641;-60
2022/08/09 11:18:42;;;;;;;2.80;2.30;;;;;;;32.96;nan;-24725.22;5013510;28;20342;-62
2022/08/09 11:21:08;;;;;;;4.72;2.50;;;;;;;32.86;nan;-24722.50;5012248;28;20230;-61
2022/08/09 11:23:59;;;;;;;2.88;2.20;;;;;;;33.19;nan;-24731.31;5011649;28;20199;-63
2022/08/09 11:26:38;;;;;;;4.03;2.70;;;;;;;32.86;nan;-24722.50;5012979;28;20233;-62
2022/08/09 11:29:03;;;;;;;3.92;2.95;;;;;;;32.53;nan;-24713.69;5013801;28;20211;-60
2022/08/09 11:31:44;;;;;;;3.63;2.85;;;;;;;33.19;nan;-24731.47;5013287;28;20217;-62
2022/08/09 11:34:21;;;;;;;4.32;2.38;;;;;;;33.17;nan;-24730.91;5013382;28;20165;-62
2022/08/09 11:36:47;;;;;;;4.95;3.60;;;;;;;32.98;nan;-24725.63;4994438;28;20226;-61
2022/08/09 11:39:13;;;;;;;4.45;3.28;;;;;;;33.22;nan;-24732.28;5004510;28;20660;-63
2022/08/09 11:41:39;;;;;;;6.90;4.63;;;;;;;32.88;nan;-24722.94;5013421;28;20176;-62
2022/08/09 11:44:05;;;;;;;6.65;4.00;;;;;;;32.95;nan;-24724.97;5012864;28;20179;-61
2022/08/09 11:46:55;;;;;;;5.90;4.18;;;;;;;32.80;nan;-24720.88;5011975;28;20176;-62
2022/08/09 11:49:57;;;;;;;5.90;4.28;;;;;;;32.53;nan;-24713.69;5012903;28;20212;-62
2022/08/09 11:52:24;;;;;;;8.15;5.43;;;;;;;32.12;nan;-24702.72;4980936;28;20207;-61